createdAt,value
2019-06-15T00:02:02.406Z,21.30
2019-06-15T00:04:33.008Z,21.30
2019-06-15T00:07:03.914Z,21.30
2019-06-15T00:09:34.603Z,21.30
2019-06-15T00:12:05.084Z,21.30
2019-06-15T00:14:35.511Z,21.30
2019-06-15T00:17:06.161Z,21.30
2019-06-15T00:19:36.773Z,21.30
2019-06-15T00:22:07.548Z,21.20
2019-06-15T00:24:38.084Z,21.20
2019-06-15T00:27:08.460Z,21.20
2019-06-15T00:29:38.950Z,21.20
2019-06-15T00:32:09.417Z,21.10
2019-06-15T00:34:39.973Z,21.10
2019-06-15T00:37:10.435Z,21.10
2019-06-15T00:42:10.481Z,21.10
2019-06-15T00:47:10.871Z,21.10
2019-06-15T00:49:41.184Z,21.10
2019-06-15T00:52:11.363Z,21.10
2019-06-15T00:57:11.775Z,21.00
2019-06-15T00:59:42.134Z,21.00
2019-06-15T01:02:12.590Z,21.00
2019-06-15T01:04:42.980Z,21.00
2019-06-15T01:07:13.544Z,21.00
2019-06-15T01:09:44.097Z,21.00
2019-06-15T01:12:14.626Z,21.00
2019-06-15T01:14:45.132Z,20.90
2019-06-15T01:17:15.732Z,20.90
2019-06-15T01:19:46.325Z,20.90
2019-06-15T01:22:16.861Z,20.90
2019-06-15T01:24:47.356Z,20.90
2019-06-15T01:27:17.981Z,20.80
2019-06-15T01:29:48.409Z,20.80
2019-06-15T01:32:18.695Z,20.80
2019-06-15T01:34:49.170Z,20.80
2019-06-15T01:37:19.429Z,20.80
2019-06-15T01:39:50.257Z,20.80
2019-06-15T01:42:20.867Z,20.80
2019-06-15T01:44:51.388Z,20.80
2019-06-15T01:47:22.029Z,20.80
2019-06-15T01:49:52.659Z,20.70
2019-06-15T01:52:23.164Z,20.80
2019-06-15T01:54:53.596Z,20.70
2019-06-15T01:57:24.133Z,20.70
2019-06-15T01:59:54.762Z,20.70
2019-06-15T02:02:25.160Z,20.70
2019-06-15T02:04:55.762Z,20.80
2019-06-15T02:07:26.208Z,20.80
2019-06-15T02:09:56.777Z,20.80
2019-06-15T02:12:27.298Z,20.80
2019-06-15T02:14:57.827Z,20.90
2019-06-15T02:17:28.252Z,20.90
2019-06-15T02:19:58.783Z,20.80
2019-06-15T02:22:29.281Z,20.80
2019-06-15T02:24:59.883Z,20.80
2019-06-15T02:27:30.228Z,20.80
2019-06-15T02:30:00.771Z,20.80
2019-06-15T02:32:31.079Z,20.90
2019-06-15T02:35:01.585Z,20.90
2019-06-15T02:37:32.105Z,20.90
2019-06-15T02:40:02.587Z,20.90
2019-06-15T02:42:33.414Z,20.90
2019-06-15T02:45:04.029Z,20.90
2019-06-15T02:47:34.582Z,20.80
2019-06-15T02:50:05.528Z,20.80
2019-06-15T02:52:36.223Z,20.80
2019-06-15T02:55:07.108Z,20.90
2019-06-15T02:57:37.712Z,20.90
2019-06-15T03:02:38.285Z,20.80
2019-06-15T03:05:08.965Z,20.90
2019-06-15T03:07:39.774Z,20.90
2019-06-15T03:10:10.474Z,20.90
2019-06-15T03:12:41.136Z,20.90
2019-06-15T03:15:11.856Z,21.00
2019-06-15T03:17:43.160Z,20.90
2019-06-15T03:20:13.743Z,21.00
2019-06-15T03:22:44.106Z,21.00
2019-06-15T03:25:14.804Z,21.00
2019-06-15T03:27:45.205Z,21.00
2019-06-15T03:30:15.732Z,21.00
2019-06-15T03:32:46.171Z,21.10
2019-06-15T03:35:16.794Z,21.00
2019-06-15T03:37:47.097Z,21.10
2019-06-15T03:40:17.788Z,21.00
2019-06-15T03:42:48.345Z,21.10
2019-06-15T03:45:18.889Z,21.10
2019-06-15T03:47:49.412Z,21.20
2019-06-15T03:50:19.990Z,21.20
2019-06-15T03:52:50.498Z,21.20
2019-06-15T03:55:21.151Z,21.20
2019-06-15T03:57:51.453Z,21.20
2019-06-15T04:00:37.823Z,21.20
2019-06-15T04:03:08.240Z,21.20
2019-06-15T04:05:38.765Z,21.30
2019-06-15T04:08:09.304Z,21.30
2019-06-15T04:10:39.780Z,21.20
2019-06-15T04:13:10.299Z,21.30
2019-06-15T04:15:40.853Z,21.30
2019-06-15T04:18:11.196Z,21.30
2019-06-15T04:20:41.835Z,21.30
2019-06-15T04:23:12.361Z,21.40
2019-06-15T04:25:44.365Z,21.40
2019-06-15T04:28:13.476Z,21.50
2019-06-15T04:30:44.489Z,21.50
2019-06-15T04:33:14.874Z,21.50
2019-06-15T04:35:45.390Z,21.70
2019-06-15T04:38:16.009Z,21.70
2019-06-15T04:40:46.866Z,21.70
2019-06-15T04:43:17.234Z,21.70
2019-06-15T04:45:47.797Z,21.70
2019-06-15T04:48:18.385Z,21.80
2019-06-15T04:50:48.906Z,21.80
2019-06-15T04:53:19.243Z,21.90
2019-06-15T04:55:49.809Z,21.90
2019-06-15T04:58:20.296Z,22.00
2019-06-15T05:00:50.893Z,22.10
2019-06-15T05:03:21.417Z,22.20
2019-06-15T05:05:52.319Z,22.30
2019-06-15T05:08:22.757Z,22.40
2019-06-15T05:10:59.480Z,22.40
2019-06-15T05:15:53.553Z,22.50
2019-06-15T05:18:24.052Z,22.60
2019-06-15T05:20:54.501Z,22.70
2019-06-15T05:23:25.013Z,22.80
2019-06-15T05:25:55.436Z,22.90
2019-06-15T05:28:26.113Z,23.10
2019-06-15T05:30:56.748Z,23.20
2019-06-15T05:33:27.356Z,23.30
2019-06-15T05:35:57.802Z,23.40
2019-06-15T05:38:28.124Z,23.50
2019-06-15T05:40:59.049Z,23.50
2019-06-15T05:43:29.517Z,23.50
2019-06-15T05:45:59.998Z,23.60
2019-06-15T05:48:30.421Z,23.80
2019-06-15T05:51:00.904Z,24.00
2019-06-15T05:53:31.324Z,24.30
2019-06-15T05:56:01.888Z,24.30
2019-06-15T05:58:32.329Z,24.50
2019-06-15T06:01:02.914Z,24.80
2019-06-15T06:03:33.277Z,24.80
2019-06-15T06:06:04.457Z,24.80
2019-06-15T06:08:34.810Z,25.00
2019-06-15T06:11:05.373Z,25.30
2019-06-15T06:13:35.913Z,25.60
2019-06-15T06:16:06.481Z,25.70
2019-06-15T06:21:06.628Z,25.90
2019-06-15T06:23:37.345Z,25.80
2019-06-15T06:26:07.624Z,25.40
2019-06-15T06:28:38.277Z,25.40
2019-06-15T06:31:08.705Z,25.60
2019-06-15T06:33:39.251Z,25.80
2019-06-15T06:36:09.600Z,25.80
2019-06-15T06:41:09.584Z,25.50
2019-06-15T06:43:40.121Z,25.40
2019-06-15T06:46:10.593Z,25.50
2019-06-15T06:48:41.098Z,25.60
2019-06-15T06:51:11.550Z,25.80
2019-06-15T06:53:42.005Z,25.70
2019-06-15T06:56:12.508Z,25.60
2019-06-15T06:58:43.088Z,25.60
2019-06-15T07:01:13.693Z,25.60
2019-06-15T07:03:44.120Z,25.70
2019-06-15T07:06:14.601Z,25.80
2019-06-15T07:08:47.951Z,25.90
2019-06-15T07:11:15.907Z,26.10
2019-06-15T07:13:46.576Z,26.30
2019-06-15T07:16:16.932Z,26.50
2019-06-15T07:18:47.439Z,26.60
2019-06-15T07:21:17.830Z,26.70
2019-06-15T07:23:48.259Z,26.80
2019-06-15T07:26:18.992Z,27.00
2019-06-15T07:28:49.778Z,27.20
2019-06-15T07:31:20.120Z,27.30
2019-06-15T07:33:50.582Z,27.30
2019-06-15T07:36:21.069Z,27.50
2019-06-15T07:38:51.545Z,27.70
2019-06-15T07:41:22.053Z,27.90
2019-06-15T07:43:52.458Z,27.90
2019-06-15T07:46:22.776Z,28.00
2019-06-15T07:48:54.581Z,28.10
2019-06-15T07:51:26.173Z,28.20
2019-06-15T07:53:57.163Z,28.00
2019-06-15T07:56:27.788Z,27.90
2019-06-15T07:58:58.312Z,27.80
2019-06-15T08:01:28.873Z,27.60
2019-06-15T08:03:59.469Z,27.50
2019-06-15T08:06:29.876Z,27.40
2019-06-15T08:09:00.343Z,27.60
2019-06-15T08:11:30.825Z,27.70
2019-06-15T08:14:01.304Z,28.00
2019-06-15T08:16:31.788Z,28.00
2019-06-15T08:21:32.448Z,27.90
2019-06-15T08:24:04.894Z,27.70
2019-06-15T08:26:33.598Z,27.80
2019-06-15T08:29:04.177Z,28.00
2019-06-15T08:31:34.662Z,28.20
2019-06-15T08:34:05.249Z,28.30
2019-06-15T08:36:35.841Z,28.30
2019-06-15T08:39:06.809Z,28.30
2019-06-15T08:41:37.412Z,28.50
2019-06-15T08:44:08.001Z,28.80
2019-06-15T08:46:38.451Z,29.30
2019-06-15T08:49:08.843Z,29.60
2019-06-15T08:51:39.430Z,29.80
2019-06-15T08:54:09.980Z,29.80
2019-06-15T08:56:40.459Z,30.00
2019-06-15T09:01:41.029Z,29.90
2019-06-15T09:04:11.398Z,29.90
2019-06-15T09:06:41.881Z,29.90
2019-06-15T09:09:15.824Z,29.80
2019-06-15T09:11:43.863Z,29.80
2019-06-15T09:14:14.341Z,29.90
2019-06-15T09:16:44.745Z,29.90
2019-06-15T09:19:15.469Z,30.00
2019-06-15T09:21:46.993Z,30.00
2019-06-15T09:24:17.637Z,30.00
2019-06-15T09:26:48.161Z,30.40
2019-06-15T09:29:18.556Z,30.50
2019-06-15T09:34:19.561Z,30.10
2019-06-15T09:36:49.309Z,30.10
2019-06-15T09:39:19.853Z,30.20
2019-06-15T09:41:50.638Z,30.60
2019-06-15T09:44:21.272Z,30.80
2019-06-15T09:46:51.809Z,31.00
2019-06-15T09:49:22.252Z,30.90
2019-06-15T09:51:52.839Z,31.20
2019-06-15T09:54:23.632Z,31.30
2019-06-15T09:56:53.852Z,31.20
2019-06-15T09:59:26.346Z,31.20
2019-06-15T10:04:24.494Z,31.30
2019-06-15T10:06:54.952Z,31.60
2019-06-15T10:09:25.656Z,31.60
2019-06-15T10:11:55.840Z,31.60
2019-06-15T10:14:26.319Z,31.90
2019-06-15T10:16:56.836Z,31.80
2019-06-15T10:19:27.453Z,31.90
2019-06-15T10:21:58.009Z,32.20
2019-06-15T10:24:28.458Z,32.30
2019-06-15T10:26:58.897Z,32.50
2019-06-15T10:29:41.545Z,32.40
2019-06-15T10:31:59.971Z,32.60
2019-06-15T10:34:30.387Z,32.60
2019-06-15T10:37:00.932Z,32.60
2019-06-15T10:39:31.573Z,32.90
2019-06-15T10:42:02.091Z,33.40
2019-06-15T10:44:32.784Z,33.60
2019-06-15T10:49:33.092Z,33.80
2019-06-15T10:52:03.622Z,34.10
2019-06-15T10:54:34.267Z,33.80
2019-06-15T10:59:34.677Z,33.60
2019-06-15T11:02:05.108Z,33.90
2019-06-15T11:04:35.737Z,33.80
2019-06-15T11:07:06.507Z,33.40
2019-06-15T11:09:37.031Z,33.80
2019-06-15T11:12:07.623Z,33.90
2019-06-15T11:14:38.270Z,33.50
2019-06-15T11:17:08.964Z,33.60
2019-06-15T11:19:39.437Z,33.90
2019-06-15T11:22:09.849Z,34.10
2019-06-15T11:24:40.551Z,34.20
2019-06-15T11:27:11.118Z,34.40
2019-06-15T11:29:41.653Z,34.70
2019-06-15T11:32:12.351Z,34.60
2019-06-15T11:34:42.862Z,34.50
2019-06-15T11:39:42.969Z,35.30
2019-06-15T11:44:43.409Z,34.20
2019-06-15T11:49:43.842Z,34.30
2019-06-15T11:52:14.091Z,34.30
2019-06-15T11:57:15.448Z,34.20
2019-06-15T11:59:45.923Z,34.30
2019-06-15T12:02:16.474Z,34.30
2019-06-15T12:04:58.046Z,34.60
2019-06-15T12:07:17.280Z,35.20
2019-06-15T12:09:47.570Z,35.70
2019-06-15T12:12:21.589Z,36.10
2019-06-15T12:14:52.044Z,36.70
2019-06-15T12:17:22.550Z,36.20
2019-06-15T12:19:53.166Z,34.60
2019-06-15T12:22:24.130Z,35.00
2019-06-15T12:24:54.562Z,35.10
2019-06-15T12:27:25.077Z,34.90
2019-06-15T12:29:55.578Z,35.20
2019-06-15T12:32:26.028Z,35.10
2019-06-15T12:34:56.455Z,34.80
2019-06-15T12:37:26.641Z,34.40
2019-06-15T12:39:57.340Z,34.90
2019-06-15T12:42:27.601Z,35.30
2019-06-15T12:44:57.951Z,35.90
2019-06-15T12:47:28.433Z,35.70
2019-06-15T12:49:58.772Z,35.30
2019-06-15T12:52:28.949Z,35.00
2019-06-15T12:54:59.288Z,35.00
2019-06-15T12:57:29.593Z,35.90
2019-06-15T13:00:00.016Z,36.60
2019-06-15T13:02:30.586Z,36.20
2019-06-15T13:05:01.109Z,35.70
2019-06-15T13:07:31.505Z,35.70
2019-06-15T13:10:01.871Z,35.90
2019-06-15T13:12:32.245Z,35.90
2019-06-15T13:15:02.765Z,36.40
2019-06-15T13:20:22.368Z,37.40
2019-06-15T13:25:22.473Z,36.50
2019-06-15T13:27:52.973Z,37.30
2019-06-15T13:30:23.611Z,37.00
2019-06-15T13:32:54.135Z,37.20
2019-06-15T13:35:24.652Z,37.40
2019-06-15T13:37:55.039Z,36.60
2019-06-15T13:40:25.533Z,37.40
2019-06-15T13:42:56.757Z,37.70
2019-06-15T13:45:27.481Z,37.50
2019-06-15T13:47:57.872Z,37.40
2019-06-15T13:50:28.453Z,38.00
2019-06-15T13:52:59.045Z,37.60
2019-06-15T13:55:29.599Z,37.80
2019-06-15T13:58:00.121Z,36.80
2019-06-15T14:00:30.717Z,36.60
2019-06-15T14:03:01.186Z,36.60
2019-06-15T14:05:31.738Z,37.60
2019-06-15T14:08:02.096Z,38.30
2019-06-15T14:10:32.639Z,39.00
2019-06-15T14:15:32.745Z,37.80
2019-06-15T14:18:03.277Z,38.30
2019-06-15T14:20:33.673Z,37.70
2019-06-15T14:23:04.048Z,35.80
2019-06-15T14:25:34.613Z,35.80
2019-06-15T14:28:05.077Z,35.90
2019-06-15T14:30:35.602Z,36.20
2019-06-15T14:33:05.908Z,35.90
2019-06-15T14:35:36.815Z,36.40
2019-06-15T14:38:07.177Z,36.80
2019-06-15T14:40:37.678Z,36.20
2019-06-15T14:43:07.989Z,35.30
2019-06-15T14:45:39.020Z,34.50
2019-06-15T14:50:39.267Z,33.40
2019-06-15T14:53:09.628Z,33.40
2019-06-15T14:55:39.924Z,33.30
2019-06-15T14:58:10.378Z,33.30
2019-06-15T15:00:40.845Z,33.20
2019-06-15T15:03:11.577Z,32.90
2019-06-15T15:05:41.993Z,32.60
2019-06-15T15:08:12.481Z,32.40
2019-06-15T15:10:42.990Z,32.10
2019-06-15T15:13:13.394Z,31.90
2019-06-15T15:15:43.980Z,31.80
2019-06-15T15:18:16.280Z,31.60
2019-06-15T15:20:45.152Z,31.60
2019-06-15T15:23:15.513Z,31.50
2019-06-15T15:25:47.174Z,31.40
2019-06-15T15:30:46.131Z,31.00
2019-06-15T15:33:16.516Z,30.60
2019-06-15T15:35:47.113Z,30.40
2019-06-15T15:38:17.519Z,30.40
2019-06-15T15:40:47.985Z,30.30
2019-06-15T15:43:18.429Z,30.20
2019-06-15T15:45:48.917Z,30.10
2019-06-15T15:48:21.044Z,30.10
2019-06-15T15:50:49.812Z,30.10
2019-06-15T15:53:20.277Z,30.00
2019-06-15T15:55:50.791Z,30.00
2019-06-15T15:58:21.091Z,29.90
2019-06-15T16:00:51.604Z,29.80
2019-06-15T16:03:22.290Z,29.60
2019-06-15T16:05:52.857Z,29.50
2019-06-15T16:08:25.105Z,29.40
2019-06-15T16:10:56.463Z,29.40
2019-06-15T16:13:26.744Z,29.30
2019-06-15T16:18:24.844Z,29.00
2019-06-15T16:20:55.516Z,28.40
2019-06-15T16:23:26.029Z,28.10
2019-06-15T16:25:56.896Z,27.90
2019-06-15T16:28:27.271Z,27.70
2019-06-15T16:31:06.557Z,25.70
2019-06-15T16:33:32.500Z,23.20
2019-06-15T16:36:03.030Z,21.90
2019-06-15T16:38:33.458Z,21.20
2019-06-15T16:41:03.962Z,21.00
2019-06-15T16:43:36.891Z,20.90
2019-06-15T16:46:06.419Z,20.20
2019-06-15T16:48:36.421Z,20.00
2019-06-15T16:51:06.809Z,20.40
2019-06-15T16:53:37.451Z,20.70
2019-06-15T16:56:08.101Z,21.00
2019-06-15T16:58:38.410Z,20.80
2019-06-15T17:01:08.924Z,20.60
2019-06-15T17:03:39.457Z,20.10
2019-06-15T17:06:10.074Z,19.80
2019-06-15T17:08:40.560Z,19.50
2019-06-15T17:11:11.218Z,19.20
2019-06-15T17:13:41.713Z,18.90
2019-06-15T17:16:12.162Z,18.90
2019-06-15T17:18:42.634Z,19.00
2019-06-15T17:21:13.175Z,19.60
2019-06-15T17:23:46.529Z,19.80
2019-06-15T17:26:16.666Z,19.90
2019-06-15T17:28:46.010Z,20.10
2019-06-15T17:31:16.620Z,20.30
2019-06-15T17:33:46.937Z,20.40
2019-06-15T17:36:16.460Z,20.30
2019-06-15T17:38:46.860Z,20.40
2019-06-15T17:41:17.463Z,20.40
2019-06-15T17:43:47.973Z,20.50
2019-06-15T17:46:18.535Z,20.60
2019-06-15T17:48:49.339Z,20.70
2019-06-15T17:51:20.128Z,20.80
2019-06-15T17:53:50.557Z,20.90
2019-06-15T17:56:21.132Z,20.90
2019-06-15T17:58:51.605Z,20.90
2019-06-15T18:01:21.863Z,20.90
2019-06-15T18:03:57.227Z,21.00
2019-06-15T18:06:22.693Z,21.10
2019-06-15T18:08:53.006Z,20.90
2019-06-15T18:11:26.001Z,20.80
2019-06-15T18:13:56.449Z,20.60
2019-06-15T18:16:28.052Z,20.50
2019-06-15T18:18:55.259Z,20.40
2019-06-15T18:21:26.836Z,20.20
2019-06-15T18:23:58.200Z,20.20
2019-06-15T18:26:28.837Z,20.10
2019-06-15T18:28:59.218Z,20.00
2019-06-15T18:31:29.780Z,20.00
2019-06-15T18:34:09.537Z,20.00
2019-06-15T18:36:30.924Z,20.00
2019-06-15T18:39:01.333Z,20.10
2019-06-15T18:41:31.896Z,20.10
2019-06-15T18:44:02.434Z,20.10
2019-06-15T18:46:32.921Z,20.10
2019-06-15T18:49:03.450Z,20.10
2019-06-15T18:51:33.984Z,20.20
2019-06-15T18:54:06.579Z,20.20
2019-06-15T18:56:36.309Z,20.30
2019-06-15T18:59:07.325Z,20.50
2019-06-15T19:01:37.534Z,20.60
2019-06-15T19:04:08.151Z,20.70
2019-06-15T19:06:37.198Z,20.80
2019-06-15T19:09:09.432Z,20.90
2019-06-15T19:11:39.959Z,21.10
2019-06-15T19:14:10.367Z,21.10
2019-06-15T19:16:40.836Z,21.20
2019-06-15T19:19:11.324Z,21.20
2019-06-15T19:21:42.169Z,21.30
2019-06-15T19:24:12.597Z,21.30
2019-06-15T19:26:43.011Z,21.60
2019-06-15T19:29:13.550Z,21.70
2019-06-15T19:31:46.657Z,21.90
2019-06-15T19:34:16.669Z,22.00
2019-06-15T19:36:46.860Z,22.10
2019-06-15T19:39:16.520Z,22.30
2019-06-15T19:41:46.349Z,22.40
2019-06-15T19:44:16.867Z,22.40
2019-06-15T19:46:47.837Z,22.40
2019-06-15T19:49:18.129Z,22.30
2019-06-15T19:51:50.013Z,22.30
2019-06-15T20:01:49.976Z,22.30
2019-06-15T20:04:20.343Z,22.20
2019-06-15T20:06:50.715Z,22.10
2019-06-15T20:09:21.247Z,22.00
2019-06-15T20:11:52.583Z,22.00
2019-06-15T20:14:23.197Z,21.90
2019-06-15T20:16:56.013Z,22.00
2019-06-15T20:19:27.047Z,21.90
2019-06-15T20:24:27.000Z,21.80
2019-06-15T20:26:56.200Z,21.40
2019-06-15T20:29:27.086Z,21.00
2019-06-15T20:34:26.168Z,20.60
2019-06-15T20:36:56.724Z,20.50
2019-06-15T20:39:27.051Z,20.20
2019-06-15T20:41:57.561Z,20.10
2019-06-15T20:44:27.892Z,20.10
2019-06-15T20:46:58.207Z,20.10
2019-06-15T20:49:28.639Z,20.00
2019-06-15T20:51:59.024Z,19.90
2019-06-15T20:54:29.573Z,19.70
2019-06-15T20:57:00.084Z,19.60
2019-06-15T20:59:30.686Z,19.60
2019-06-15T21:02:00.988Z,19.50
2019-06-15T21:04:31.622Z,19.60
2019-06-15T21:07:02.092Z,19.60
2019-06-15T21:09:32.579Z,19.50
2019-06-15T21:12:02.965Z,19.40
2019-06-15T21:14:33.421Z,19.20
2019-06-15T21:17:06.548Z,19.20
2019-06-15T21:19:36.075Z,19.10
2019-06-15T21:22:06.334Z,19.10
2019-06-15T21:27:06.294Z,18.90
2019-06-15T21:29:37.041Z,18.70
2019-06-15T21:32:06.573Z,18.70
2019-06-15T21:37:06.909Z,18.70
2019-06-15T21:39:37.344Z,18.60
2019-06-15T21:42:07.868Z,18.50
2019-06-15T21:44:38.358Z,18.50
2019-06-15T21:47:08.977Z,18.40
2019-06-15T21:49:39.637Z,18.40
2019-06-15T21:52:10.426Z,18.40
2019-06-15T21:54:40.981Z,18.40
2019-06-15T21:57:11.601Z,18.40
2019-06-15T21:59:42.249Z,18.50
2019-06-15T22:02:12.849Z,18.60
2019-06-15T22:04:43.284Z,18.50
2019-06-15T22:07:13.691Z,18.50
2019-06-15T22:09:46.733Z,18.50
2019-06-15T22:12:16.329Z,18.50
2019-06-15T22:14:46.633Z,18.30
2019-06-15T22:17:16.809Z,18.30
2019-06-15T22:19:46.659Z,18.30
2019-06-15T22:22:16.556Z,18.20
2019-06-15T22:24:47.000Z,18.20
2019-06-15T22:27:17.265Z,18.20
2019-06-15T22:29:47.681Z,18.10
2019-06-15T22:32:18.173Z,18.10
2019-06-15T22:34:48.455Z,18.00
2019-06-15T22:37:18.776Z,18.10
2019-06-15T22:39:49.163Z,18.10
2019-06-15T22:42:19.385Z,18.00
2019-06-15T22:44:49.708Z,18.10
2019-06-15T22:47:19.929Z,18.10
2019-06-15T22:49:50.330Z,18.10
2019-06-15T22:52:20.681Z,18.10
2019-06-15T22:54:50.944Z,18.10
2019-06-15T22:57:21.367Z,18.10
2019-06-15T22:59:51.508Z,18.10
2019-06-15T23:04:51.480Z,18.10
2019-06-15T23:07:21.705Z,18.10
2019-06-15T23:09:52.012Z,18.10
2019-06-15T23:12:22.604Z,18.00
2019-06-15T23:14:52.929Z,18.00
2019-06-15T23:17:23.306Z,18.00
2019-06-15T23:19:53.600Z,18.00
2019-06-15T23:22:23.911Z,18.00
2019-06-15T23:24:56.250Z,18.00
2019-06-15T23:27:24.645Z,18.10
2019-06-15T23:29:57.067Z,18.10
2019-06-15T23:32:25.410Z,18.00
2019-06-15T23:34:56.485Z,18.00
2019-06-15T23:37:26.642Z,18.00
2019-06-15T23:40:01.556Z,18.00
2019-06-15T23:42:31.954Z,17.90
2019-06-15T23:45:02.388Z,17.90
2019-06-15T23:47:32.687Z,17.80
2019-06-15T23:50:03.143Z,17.80
2019-06-15T23:52:36.149Z,17.80
2019-06-15T23:55:03.927Z,17.70
2019-06-15T23:57:36.769Z,17.70
